createdAt,value
2023-05-07T00:01:00.398Z,14.02
2023-05-07T00:06:03.841Z,14.02
2023-05-07T00:11:06.781Z,13.97
2023-05-07T00:16:10.951Z,13.95
2023-05-07T00:21:13.802Z,13.89
2023-05-07T00:26:16.992Z,13.88
2023-05-07T00:31:21.850Z,13.85
2023-05-07T00:36:24.817Z,13.85
2023-05-07T00:41:27.669Z,13.87
2023-05-07T00:46:33.051Z,13.84
2023-05-07T00:51:36.172Z,13.83
2023-05-07T00:56:40.160Z,13.82
2023-05-07T01:01:44.405Z,13.82
2023-05-07T01:06:48.328Z,13.82
2023-05-07T01:11:52.728Z,13.82
2023-05-07T01:16:57.236Z,13.80
2023-05-07T01:22:05.662Z,13.77
2023-05-07T01:27:16.689Z,13.75
2023-05-07T01:32:23.924Z,13.73
2023-05-07T01:37:27.659Z,13.74
2023-05-07T01:42:32.443Z,13.77
2023-05-07T01:47:38.032Z,13.68
2023-05-07T01:52:41.751Z,13.70
2023-05-07T01:57:45.976Z,13.71
2023-05-07T02:02:49.058Z,13.66
2023-05-07T02:08:05.203Z,13.65
2023-05-07T02:13:09.887Z,13.68
2023-05-07T02:18:13.354Z,13.64
2023-05-07T02:23:16.185Z,13.63
2023-05-07T02:28:20.480Z,13.65
2023-05-07T02:33:30.517Z,13.67
2023-05-07T02:38:33.777Z,13.68
2023-05-07T02:43:38.149Z,13.68
2023-05-07T02:48:41.481Z,13.66
2023-05-07T02:53:44.454Z,13.67
2023-05-07T02:58:48.619Z,13.64
2023-05-07T03:03:54.845Z,13.62
2023-05-07T03:08:58.527Z,13.59
2023-05-07T03:14:02.892Z,13.59
2023-05-07T03:19:06.465Z,13.59
2023-05-07T03:24:09.464Z,13.54
2023-05-07T03:29:13.647Z,13.49
2023-05-07T03:34:17.892Z,13.45
2023-05-07T03:39:20.704Z,13.42
2023-05-07T03:44:25.329Z,13.40
2023-05-07T03:49:29.614Z,13.34
2023-05-07T03:54:33.037Z,13.30
2023-05-07T03:59:38.207Z,13.31
2023-05-07T04:04:41.276Z,13.29
2023-05-07T04:09:45.171Z,13.31
2023-05-07T05:08:29.087Z,13.94
2023-05-07T05:13:33.823Z,14.05
2023-05-07T05:18:40.256Z,14.08
2023-05-07T05:23:46.136Z,14.10
2023-05-07T05:28:50.956Z,14.19
2023-05-07T05:33:56.803Z,14.31
2023-05-07T05:39:01.032Z,14.42
2023-05-07T05:44:04.690Z,14.47
2023-05-07T05:49:07.986Z,14.66
2023-05-07T05:54:12.725Z,14.79
2023-05-07T05:59:15.596Z,14.97
2023-05-07T06:04:19.432Z,14.98
2023-05-07T06:09:23.900Z,15.18
2023-05-07T06:14:27.223Z,15.23
2023-05-07T06:19:32.252Z,15.48
2023-05-07T06:24:37.486Z,15.69
2023-05-07T06:29:42.294Z,15.95
2023-05-07T06:34:50.388Z,16.53
2023-05-07T06:39:54.679Z,16.55
2023-05-07T06:44:57.618Z,16.99
2023-05-07T06:50:01.056Z,16.92
2023-05-07T06:55:10.030Z,16.88
2023-05-07T07:00:14.015Z,16.98
2023-05-07T07:05:23.561Z,16.94
2023-05-07T07:10:29.276Z,17.18
2023-05-07T07:15:33.087Z,17.02
2023-05-07T07:20:36.057Z,16.90
2023-05-07T07:25:42.288Z,16.95
2023-05-07T07:30:46.308Z,17.01
2023-05-07T07:35:49.268Z,17.53
2023-05-07T07:40:53.771Z,17.80
2023-05-07T07:45:56.927Z,18.13
2023-05-07T07:51:00.573Z,18.24
2023-05-07T07:56:06.445Z,18.62
2023-05-07T08:01:13.315Z,19.21
2023-05-07T08:06:17.363Z,18.76
2023-05-07T08:11:23.247Z,18.92
2023-05-07T08:16:27.410Z,19.21
2023-05-07T08:21:33.737Z,19.07
2023-05-07T08:26:40.368Z,19.48
2023-05-07T08:31:45.393Z,19.91
2023-05-07T08:36:50.334Z,19.85
2023-05-07T08:41:58.973Z,19.51
2023-05-07T08:47:06.744Z,20.09
2023-05-07T08:52:14.567Z,20.08
2023-05-07T08:57:21.939Z,20.13
2023-05-07T09:02:25.453Z,20.87
2023-05-07T09:07:30.520Z,20.25
2023-05-07T09:12:36.505Z,19.86
2023-05-07T09:17:43.693Z,19.93
2023-05-07T09:22:46.873Z,20.28
2023-05-07T09:27:53.764Z,20.21
2023-05-07T09:32:56.613Z,20.08
2023-05-07T09:38:03.860Z,20.59
2023-05-07T09:43:14.816Z,20.50
2023-05-07T09:48:31.798Z,20.73
2023-05-07T09:53:35.831Z,20.90
2023-05-07T09:58:43.720Z,21.19
2023-05-07T10:03:48.576Z,20.97
2023-05-07T10:08:53.334Z,21.74
2023-05-07T10:14:02.714Z,21.97
2023-05-07T10:19:07.793Z,21.58
2023-05-07T10:24:15.406Z,21.59
2023-05-07T10:29:33.022Z,22.21
2023-05-07T10:34:41.274Z,22.65
2023-05-07T10:39:44.714Z,22.59
2023-05-07T10:44:49.084Z,23.19
2023-05-07T10:50:23.566Z,23.29
2023-05-07T10:55:29.435Z,23.76
2023-05-07T11:00:47.925Z,24.05
2023-05-07T11:06:13.206Z,24.26
2023-05-07T11:11:48.857Z,24.75
2023-05-07T11:17:15.716Z,24.50
2023-05-07T11:22:42.016Z,24.48
2023-05-07T11:27:54.203Z,24.42
2023-05-07T11:32:58.701Z,24.56
2023-05-07T11:38:02.957Z,24.66
2023-05-07T11:43:12.719Z,25.08
2023-05-07T11:48:18.241Z,25.52
2023-05-07T11:53:21.191Z,26.57
2023-05-07T11:58:25.528Z,25.16
2023-05-07T12:03:36.203Z,25.36
2023-05-07T12:08:42.220Z,25.24
2023-05-07T12:13:45.507Z,25.84
2023-05-07T12:18:50.576Z,26.65
2023-05-07T12:23:53.611Z,26.86
2023-05-07T12:28:56.356Z,26.63
2023-05-07T12:34:04.580Z,25.00
2023-05-07T12:39:07.650Z,24.83
2023-05-07T12:44:10.557Z,24.85
2023-05-07T12:49:15.735Z,26.28
2023-05-07T12:54:32.485Z,25.46
2023-05-07T12:59:39.590Z,27.51
2023-05-07T13:04:45.920Z,28.81
2023-05-07T13:09:51.031Z,28.08
2023-05-07T13:14:53.892Z,28.10
2023-05-07T13:19:58.651Z,28.06
2023-05-07T13:25:01.465Z,30.41
2023-05-07T13:30:07.781Z,27.97
2023-05-07T13:35:13.811Z,30.05
2023-05-07T13:40:17.574Z,29.91
2023-05-07T13:45:20.920Z,29.87
2023-05-07T13:50:25.136Z,29.24
2023-05-07T13:55:31.319Z,30.12
2023-05-07T14:00:34.161Z,29.49
2023-05-07T14:05:38.392Z,27.85
2023-05-07T14:10:41.331Z,27.59
2023-05-07T14:15:47.710Z,25.88
2023-05-07T14:20:52.010Z,24.41
2023-05-07T14:25:55.105Z,25.04
2023-05-07T14:30:58.368Z,24.66
2023-05-07T14:36:03.726Z,24.17
2023-05-07T14:41:06.458Z,23.76
2023-05-07T14:46:09.537Z,23.72
2023-05-07T14:51:13.964Z,23.49
2023-05-07T14:56:17.839Z,23.57
2023-05-07T15:01:22.988Z,23.22
2023-05-07T15:06:28.264Z,23.34
2023-05-07T15:11:31.329Z,23.35
2023-05-07T15:16:36.765Z,23.43
2023-05-07T15:21:41.384Z,24.05
2023-05-07T15:26:44.169Z,26.11
2023-05-07T15:31:47.746Z,27.10
2023-05-07T15:36:52.253Z,27.15
2023-05-07T15:41:55.794Z,25.80
2023-05-07T15:47:00.981Z,25.22
2023-05-07T15:52:05.589Z,26.38
2023-05-07T15:57:08.997Z,26.51
2023-05-07T16:02:11.816Z,26.00
2023-05-07T16:07:16.831Z,25.07
2023-05-07T16:12:19.790Z,23.68
2023-05-07T16:17:22.698Z,23.20
2023-05-07T16:22:29.185Z,22.85
2023-05-07T16:27:31.928Z,22.39
2023-05-07T16:32:34.766Z,22.35
2023-05-07T16:37:41.530Z,22.06
2023-05-07T16:42:44.324Z,21.96
2023-05-07T16:47:47.167Z,21.80
2023-05-07T16:52:51.929Z,21.65
2023-05-07T16:57:55.812Z,21.58
2023-05-07T17:02:58.715Z,21.41
2023-05-07T17:08:02.984Z,21.22
2023-05-07T17:13:08.026Z,20.98
2023-05-07T17:18:11.499Z,20.88
2023-05-07T17:23:15.624Z,20.82
2023-05-07T17:28:18.429Z,20.71
2023-05-07T17:33:22.420Z,20.63
2023-05-07T17:38:29.939Z,20.52
2023-05-07T17:43:32.647Z,20.45
2023-05-07T17:48:35.643Z,20.34
2023-05-07T17:53:41.945Z,19.61
2023-05-07T17:58:58.064Z,19.26
2023-05-07T18:04:03.100Z,18.88
2023-05-07T18:09:07.383Z,16.94
2023-05-07T18:14:11.738Z,16.64
2023-05-07T18:19:14.713Z,16.13
2023-05-07T18:31:07.601Z,15.31
2023-05-07T18:36:11.669Z,15.16
2023-05-07T18:41:15.672Z,15.22
2023-05-07T18:46:20.998Z,15.10
2023-05-07T18:51:23.798Z,14.90
2023-05-07T18:56:27.708Z,14.93
2023-05-07T19:01:32.682Z,14.78
2023-05-07T19:06:36.792Z,14.68
2023-05-07T19:11:39.499Z,14.69
2023-05-07T19:16:44.007Z,14.59
2023-05-07T19:21:47.650Z,14.56
2023-05-07T19:26:50.844Z,14.53
2023-05-07T19:31:55.303Z,14.59
2023-05-07T19:36:58.370Z,14.67
2023-05-07T19:42:01.731Z,14.65
2023-05-07T19:47:06.872Z,14.62
2023-05-07T19:52:11.008Z,14.54
2023-05-07T19:57:14.704Z,14.58
2023-05-07T20:02:19.052Z,14.57
2023-05-07T20:07:23.696Z,14.53
2023-05-07T20:12:26.384Z,14.50
2023-05-07T20:17:30.778Z,14.42
2023-05-07T20:22:33.661Z,14.47
2023-05-07T20:27:40.882Z,14.38
2023-05-07T20:32:45.009Z,14.43
2023-05-07T20:37:48.751Z,14.45
2023-05-07T20:42:51.486Z,14.44
2023-05-07T20:47:55.599Z,14.42
2023-05-07T20:52:58.491Z,14.40
2023-05-07T20:58:01.346Z,14.39
2023-05-07T21:03:05.505Z,14.45
2023-05-07T21:08:08.410Z,14.45
2023-05-07T21:13:11.228Z,14.42
2023-05-07T21:18:15.635Z,14.42
2023-05-07T21:23:18.524Z,14.44
2023-05-07T21:28:21.407Z,14.46
2023-05-07T21:33:25.550Z,14.44
2023-05-07T21:38:28.540Z,14.41
2023-05-07T21:43:31.625Z,14.44
2023-05-07T21:48:35.866Z,14.45
2023-05-07T21:53:38.666Z,14.46
2023-05-07T21:58:41.476Z,14.48
2023-05-07T22:03:45.941Z,14.44
2023-05-07T22:08:49.478Z,14.43
2023-05-07T22:13:52.278Z,14.39
2023-05-07T22:18:56.533Z,14.36
2023-05-07T22:23:59.388Z,14.36
2023-05-07T22:29:02.087Z,14.30
2023-05-07T22:34:06.238Z,14.26
2023-05-07T22:39:09.892Z,14.22
2023-05-07T22:44:12.881Z,14.21
2023-05-07T22:49:16.991Z,14.06
2023-05-07T22:54:19.792Z,14.05
2023-05-07T22:59:22.706Z,14.04
2023-05-07T23:04:27.716Z,14.00
2023-05-07T23:09:30.785Z,13.88
2023-05-07T23:14:33.609Z,13.85
2023-05-07T23:19:38.225Z,13.69
2023-05-07T23:24:41.072Z,13.65
2023-05-07T23:29:46.855Z,13.65
2023-05-07T23:34:53.856Z,13.58
2023-05-07T23:39:56.755Z,13.44
2023-05-07T23:44:59.589Z,13.38
2023-05-07T23:50:04.188Z,13.30
2023-05-07T23:55:08.413Z,13.25
